Forside
METAR-TAF:

METAR-TAF

Lufthavne :

Fort Smith, Arkansas, USA

Breddekreds: 35-20-01N, længdekreds: 094-21-54W, højde: 142 m

Aktuelle vejr

Denne rapport blev lavet for 31 minutter siden, kl. 23:53 UTC
Vind 3 kt fra nord
Temperatur 3°C
Fugtighed 44%
Tryk 1028 hPa
Sigt: 16.1 km
Spredte skyer i en højde af 9000 ft

METAR: KFSM 142353Z 35003KT 10SM SCT090 03/M08 A3036 RMK AO2 SLP283 T00281083 10044 20022 58008

Tid: 18:24 (00:24 UTC)

Vejrudsigter

Denne rapport blev lavet for 1 time og 2 minutter siden, kl. 23:22 UTC
Foreløbig gælder fra 15 på 00 UTC til 15 på 24 UTC
Vind 8 kt fra nord
Sigt: 10 km
Overskyet i en højde af 6000 ft
Fra 15 på 0300 UTC
Vind 3 kt fra varierende retninger
Sigt: 10 km
Brudte skyer i en højde af 25000 ft
Fra 15 på 1800 UTC
Vind 7 kt fra vestsydvest
Sigt: 10 km
skyfri

TAF: KFSM 142322Z 1500/1524 01008KT P6SM OVC060 FM150300 VRB03KT P6SM BKN250 FM151800 25007KT P6SM SKC

Vejrobservationer og prognoser fra mere end 4000 lufthavne (METAR og TAF).

De gule og røde prikker repræsenterer de meteorologiske stationer.

Flyt musen over at se navnet på stationen.

Så klik over at se vejr observationer og prognoser.

At skifte det kort: Klik på de grønne knapper med et sort kors for at zoome ind; på den grønne knap med en bindestreg for at zoome ud; eller på de grønne pile for tilstødende kort.


METAR-TAF: